WetterOnline ( https://www.wetteronline.de )

Wetter aktuell Weilheim

Aktuelles Wetter: Hohenpeißenberg (986m)

6-stündlich | Neueste Meldungen
Ortszeit Temperatur Wetter
So, 26.05. 14:00 14.6° C bewölkt
So, 26.05. 8:00 9.3° C bedeckt
So, 26.05. 2:00 8.5° C leichter Regen
Sa, 25.05. 20:00 9.6° C leichter Regen
Sa, 25.05. 14:00 15.9° C bewölkt
Sa, 25.05. 8:00 12.2° C leicht bewölkt
Sa, 25.05. 2:00 13.3° C leicht bewölkt
Fr, 24.05. 20:00 15.2° C bedeckt
Ortszeit Temperatur Wetter
So, 26.05. 19:30 15.9° C wolkenlos
So, 26.05. 19:10 16.1° C wolkenlos
So, 26.05. 19:00 16.2° C wolkenlos
So, 26.05. 18:50 16.2° C wolkenlos
So, 26.05. 18:40 17.0° C wolkenlos
So, 26.05. 18:30 16.3° C wolkenlos
So, 26.05. 18:00 17.0° C leicht bewölkt
So, 26.05. 17:30 16.3° C wolkig
So, 26.05. 17:00 16.0° C bewölkt
So, 26.05. 16:30 15.1° C bewölkt
Ortszeit Relative Feuchte Sichtweite
So, 26.05. 14:00 67% 45 km
So, 26.05. 8:00 89% 55 km
So, 26.05. 2:00 100% 0.4 km
Sa, 25.05. 20:00 99% 5.0 km
Sa, 25.05. 14:00 57% 50 km
Sa, 25.05. 8:00 63% 30 km
Sa, 25.05. 2:00 56% 40 km
Fr, 24.05. 20:00 55% 50 km
Ortszeit Relative Feuchte Sichtweite
So, 26.05. 19:30 60% 65 km
So, 26.05. 19:10 59% -
So, 26.05. 19:00 58% 50 km
So, 26.05. 18:50 58% -
So, 26.05. 18:40 60% -
So, 26.05. 18:30 59% 55 km
So, 26.05. 18:00 58% 65 km
So, 26.05. 17:30 57% 55 km
So, 26.05. 17:00 62% 40 km
So, 26.05. 16:30 66% 50 km
Ortszeit Niederschlagsmenge Niederschlagsart
So, 26.05. 14:00 0.1 l/m2 in 6 Std. -
So, 26.05. 8:00 5 l/m2 in 12 Std. Regen
So, 26.05. 2:00 5 l/m2 in 6 Std. Regen
Sa, 25.05. 20:00 4 l/m2 in 12 Std. Regen
Sa, 25.05. 14:00 0.1 l/m2 in 6 Std. Regen
Sa, 25.05. 8:00 0.0 l/m2 in 12 Std. -
Sa, 25.05. 2:00 0.0 l/m2 in 6 Std. -
Fr, 24.05. 20:00 0.0 l/m2 in 12 Std. -
Ortszeit Niederschlagsmenge Niederschlagsart
So, 26.05. 19:30 0.1 l/m2 in 1 Std. -
So, 26.05. 19:10 keine Meldung -
So, 26.05. 19:00 0.1 l/m2 in 1 Std. -
So, 26.05. 18:50 keine Meldung -
So, 26.05. 18:40 keine Meldung -
So, 26.05. 18:30 0.1 l/m2 in 1 Std. -
So, 26.05. 18:00 0.1 l/m2 in 1 Std. -
So, 26.05. 17:30 0.1 l/m2 in 1 Std. -
So, 26.05. 17:00 0.1 l/m2 in 1 Std. -
So, 26.05. 16:30 0.1 l/m2 in 1 Std. -
Ortszeit Stärke Spitze Richtung
km/h Bft. km/h Grad Sektor
So, 26.05. 14:00 4 1 18 220° SW
So, 26.05. 8:00 11 2 22 250° W
So, 26.05. 2:00 13 3 24 190° S
Sa, 25.05. 20:00 9 2 37 250° W
Sa, 25.05. 14:00 7 2 22 50° NO
Sa, 25.05. 8:00 9 2 15 280° W
Sa, 25.05. 2:00 6 1 15 140° SO
Fr, 24.05. 20:00 9 2 24 10° N
Ortszeit Stärke Spitze Richtung
km/h Bft. km/h Grad Sektor
So, 26.05. 19:30 7 2 14 270° W
So, 26.05. 19:10 7 2 - 290° W
So, 26.05. 19:00 6 1 17 230° SW
So, 26.05. 18:50 6 1 - 230° SW
So, 26.05. 18:40 6 1 - 240° SW
So, 26.05. 18:30 6 1 17 260° W
So, 26.05. 18:00 7 2 14 220° SW
So, 26.05. 17:30 7 2 14 290° W
So, 26.05. 17:00 4 1 11 300° NW
So, 26.05. 16:30 4 1 11 360° N
Ortszeit Untergrenze Bedeckung Gattung
total tief tief mittel hoch
So, 26.05. 14:00 660 m 7/8 7/8 - - -
So, 26.05. 8:00 1320 m 8/8 8/8 - - -
So, 26.05. 2:00 1440 m 8/8 8/8 - - -
Sa, 25.05. 20:00 1500 m 8/8 8/8 - - -
Sa, 25.05. 14:00 1440 m 8/8 6/8 - - -
Sa, 25.05. 8:00 3300 m 4/8 3/8 - - -
Sa, 25.05. 2:00 8100 m 5/8 0/8 - - -
Fr, 24.05. 20:00 5100 m 8/8 8/8 - - -
Ortszeit Bedeckungsgrad in Achtel und Wolkenuntergrenze
So, 26.05. 19:30 keine Wolken
So, 26.05. 19:10 keine Wolken
So, 26.05. 19:00 keine Wolken
So, 26.05. 18:50 keine Wolken
So, 26.05. 18:40 keine Wolken
So, 26.05. 18:30 keine Wolken
So, 26.05. 18:00 3(2100m)
So, 26.05. 17:30 5(2100m)
So, 26.05. 17:00 2(840m) 7(2100m)
So, 26.05. 16:30 6(840m) 7(1800m)
Ortszeit Stationsdruck (hPa) Tendenz (hPa in 3 Std.)
So, 26.05. 14:00 905 - 0,5
So, 26.05. 8:00 905 + 0,5
So, 26.05. 2:00 905 - 0,4
Sa, 25.05. 20:00 904 + 1,2
Sa, 25.05. 14:00 903 - 0,5
Sa, 25.05. 8:00 903 + 0,7
Sa, 25.05. 2:00 903 - 0,1
Fr, 24.05. 20:00 902 - 0,3
Ortszeit Stationsdruck (hPa) Tendenz (hPa in 3 Std.)
So, 26.05. 19:30 903 - 0,9
So, 26.05. 19:10 903 keine Meldung
So, 26.05. 19:00 903 - 0,6
So, 26.05. 18:50 903 keine Meldung
So, 26.05. 18:40 903 keine Meldung
So, 26.05. 18:30 904 - 0,6
So, 26.05. 18:00 904 - 0,6
So, 26.05. 17:30 904 - 0,7
So, 26.05. 17:00 904 - 0,8
So, 26.05. 16:30 904 - 0,9
Ortszeit Schneehöhe (cm)
So, 26.05. 14:00 -
So, 26.05. 8:00 -
So, 26.05. 2:00 -
Sa, 25.05. 20:00 -
Sa, 25.05. 14:00 -
Sa, 25.05. 8:00 -
Sa, 25.05. 2:00 -
Fr, 24.05. 20:00 -
Ortszeit Schneehöhe (cm)
So, 26.05. 19:30 -
So, 26.05. 19:10 -
So, 26.05. 19:00 -
So, 26.05. 18:50 -
So, 26.05. 18:40 -
So, 26.05. 18:30 -
So, 26.05. 18:00 -
So, 26.05. 17:30 -
So, 26.05. 17:00 -
So, 26.05. 16:30 -
Link zu dieser Seite / Seite empfehlen

Das Wetter in ...